This is the latest recevied weather packets stored in our database for station/object Winterlng. If no packets are shown the sender has not sent any weather packets the latest 10 day(s).
| Time | Temp. | Humidity | Pressure | Rain* | Wind** | Luminosity | Snow |
|---|---|---|---|---|---|---|---|
| 1777959131 | 11.67° C | 80% | 0 hPa | 0 mm | - | - | - |
| 1777957331 | 12.78° C | 77% | 0 hPa | 0 mm | - | - | - |
| 1777955531 | 8.89° C | 88% | 0 hPa | 0 mm | - | - | - |
| 1777953731 | 8.33° C | 87% | 0 hPa | 0 mm | - | - | - |
| 1777951931 | 8.33° C | 87% | 0 hPa | 0 mm | - | - | - |
| 1777950134 | 8.89° C | 85% | 0 hPa | 0 mm | - | - | - |
| 1777948331 | 9.44° C | 84% | 0 hPa | 0 mm | - | - | - |
| 1777946531 | 9.44° C | 83% | 0 hPa | 0 mm | - | - | - |
| 1777944731 | 10° C | 83% | 0 hPa | 0 mm | - | - | - |
| 1777942932 | 10.56° C | 83% | 0 hPa | 0 mm | - | - | - |
| 1777941129 | 10° C | 83% | 0 hPa | 0 mm | - | - | - |
| 1777939330 | 10.56° C | 81% | 0 hPa | 0 mm | - | - | - |
| 1777937529 | 11.11° C | 80% | 0 hPa | 0 mm | - | - | - |
| 1777935730 | 11.67° C | 77% | 0 hPa | 0 mm | - | - | - |
| 1777933935 | 12.22° C | 76% | 0 hPa | 0 mm | - | - | - |
| 1777932130 | 12.22° C | 75% | 0 hPa | 0 mm | - | - | - |
| 1777930329 | 12.78° C | 75% | 0 hPa | 0.76 mm | - | - | - |
| 1777928529 | 12.78° C | 73% | 0 hPa | 0.76 mm | - | - | - |
| 1777926729 | 13.33° C | 72% | 0 hPa | 0.76 mm | - | - | - |
| 1777924929 | 13.33° C | 71% | 0 hPa | 0.76 mm | - | - | - |
| 1777923129 | 13.89° C | 68% | 0 hPa | 0.76 mm | - | - | - |
| 1777921329 | 14.44° C | 65% | 0 hPa | 0.76 mm | - | - | - |
| 1777919529 | 15° C | 60% | 0 hPa | 0.76 mm | - | - | - |
| 1777917734 | 16.11° C | 56% | 0 hPa | 0.76 mm | - | - | - |
| 1777915929 | 16.67° C | 56% | 0 hPa | 0.76 mm | - | - | - |
* Rain since midnight (hover to see other rain measurements)
** Current wind speed in m/s (hover to see current wind gust speed)